Airfield :
LOGIN :

Register | Disclaimer

   EN    FR    IT 

 










Legend :    VFR   Marginal VFR   IFR   Intensive IFR   Very Intensive IFR
Visi :
Ceiling :
>= 8 km
>= 3000ft
5 to 8 km
1000 to 3000 ft
1500m to 5 km
500 to 1000 ft
800 to 1500m
200 to 500 ft
< 800m
< 200 ft
Symbols :   Thunderstorms  Fog  Heavy snow  Heavy precipitations  Wind > 20 kt
SIGMETs :     Misc.  Thunderstorms  Icing  Turbulence  Mountain Waves  Volcanic Ashes






- Airport Elevation : 87 ft
- IATA code : FSC


LFKF - Figari

CURRENT METAR :
  • 150230Z AUTO 22008KT 200V260 9999 RA BKN016/// BKN023/// BKN028/// ///TCU 14/13 Q1001

EXPIRED METARs :
  • 150200Z AUTO 21008KT 9999 -RA BKN015/// BKN020/// OVC027/// ///TCU 14/13 Q1001
  • 150130Z AUTO 23009KT 200V270 9999 -RA BKN015/// BKN023/// BKN031/// ///CB 14/12 Q1001
  • 150100Z AUTO 22009KT 7000 -RA BKN017/// BKN023/// BKN028/// ///CB 14/13 Q1002
  • 150030Z AUTO VRB02KT 9999 -RA SCT018/// BKN026/// BKN037/// ///CB 13/12 Q1002
  • 150000Z AUTO 30004KT 260V330 9999 RA FEW025/// BKN033/// BKN041/// ///CB 13/11 Q1001

TAF TAF LFKF
Valid from the 14 at 15:00 until the 15 at 15:00 UTC


141400Z 1415/1515 23010KT CAVOK
BECMG 1415/1417 06010KT
BECMG 1419/1421 RA FEW035CB BKN060 BKN150
TEMPO 1421/1506 VRB15G25KT 3000 TSRA BKN020 SCT035CB BKN050 BKN100



MET'MAP, your aeronautical weather chart ! - Copyright ORBIFLY December 2007 - Disclaimer

ORBIFLY MET'MAP TEAM :

Programming & Development : Alexandra Zaïnal
Concept & Development : Baudouin d'Aumeries
Co-Development & Prog : Marc-Olivier Méhu
Technical & hardware support : Manuel Goepfert

Contact : metmap@orbifly.com




SOURCES & CREDITS :

   NOAA